Monday, June 24, 2019, 6:16 PM MDT
Back to Local

KSLC, Salt Lake City International Airport

Location: Salt Lake City, UT, United States Lat: 40.783
Local Time: 6:16 PM MDT ( 0:16 GMT) Lon: -111.967
Time Zone: US/Mountain Elev: 4225 ft

Show me the last for .
Show Decoded

2019-06-24 17:54 METAR KSLC 242354Z 02009KT 10SM FEW095 SCT150 SCT220 28/06 A2988 RMK AO2 SLP069
                 T02830056 10289 20244 58015 =
2019-06-24 16:54 METAR KSLC 242254Z 02012G17KT 10SM FEW095 SCT150 28/06 A2990 RMK AO2 SLP074
                 T02830056 =
2019-06-24 15:54 METAR KSLC 242154Z VRB05KT 10SM FEW095 SCT150 SCT220 28/06 A2992 RMK AO2 SLP082
                 ACSL DSNT NE T02780061 =
2019-06-24 14:54 METAR KSLC 242054Z 33007KT 10SM FEW095 SCT150 SCT220 27/06 A2993 RMK AO2 SLP083
                 ACC DSNT NE ACSL DSNT NW T02720056 56013 =
2019-06-24 13:54 METAR KSLC 241954Z 31007KT 10SM FEW090 SCT150 27/06 A2995 RMK AO2 SLP090 ACC
                 DSNT NE AND W ACSL DSNT NW T02670061 =
2019-06-24 12:54 METAR KSLC 241854Z 02006KT 10SM FEW090 SCT150 26/06 A2996 RMK AO2 SLP095 ACC
                 DSNT N AND SW-NW ACSL DSNT NE AND NW T02610056 =
2019-06-24 11:54 METAR KSLC 241754Z 01006KT 10SM FEW090 SCT150 25/06 A2998 RMK AO2 SLP101 ACC
                 DSNT NW-NE T02500056 10250 20150 58005 =
2019-06-24 10:54 METAR KSLC 241654Z 30004KT 10SM FEW100 FEW150 24/04 A2999 RMK AO2 SLP105
                 T02390044 =
2019-06-24 09:54 METAR KSLC 241554Z 16004KT 10SM FEW140 FEW230 22/04 A3000 RMK AO2 SLP108
                 T02220044 =
2019-06-24 08:54 METAR KSLC 241454Z 15007KT 10SM FEW140 FEW220 20/05 A3000 RMK AO2 SLP107
                 T02000050 50002 =
2019-06-24 07:54 METAR KSLC 241354Z 13008KT 10SM FEW130 FEW200 18/04 A3000 RMK AO2 SLP111
                 T01780044 =
2019-06-24 07:25 METAR KSLC 241325Z COR 14008KT 10SM FEW130 17/04 A3000 RMK AO2 T01670039 =
2019-06-24 06:54 METAR KSLC 241254Z 15006KT 10SM FEW120 FEW200 16/04 A3000 RMK AO2 SLP112
                 T01560039 =
2019-06-24 05:54 METAR KSLC 241154Z 13003KT 10SM SCT120 16/04 A2999 RMK AO2 SLP110 T01560039
                 10200 20156 52007 =
2019-06-24 04:54 METAR KSLC 241054Z 17006KT 10SM FEW160 17/03 A2998 RMK AO2 SLP107 T01670033 =
2019-06-24 03:54 METAR KSLC 240954Z 17005KT 10SM FEW160 16/04 A2997 RMK AO2 SLP104 T01610039 =
2019-06-24 02:54 METAR KSLC 240854Z 13005KT 10SM FEW120 FEW160 19/03 A2997 RMK AO2 SLP097
                 T01940033 53001 =
2019-06-24 01:54 METAR KSLC 240754Z 12008KT 10SM SCT120 SCT160 19/03 A2995 RMK AO2 SLP094
                 T01890028 =
2019-06-24 00:54 METAR KSLC 240654Z 12008KT 10SM FEW160 19/03 A2996 RMK AO2 SLP100 T01890033
                 402670111 =
2019-06-23 23:54 METAR KSLC 240554Z 12008KT 10SM FEW160 19/03 A2996 RMK AO2 SLP100 T01940033
                 10261 20194 58001 =
2019-06-23 22:54 METAR KSLC 240454Z 12007KT 10SM FEW160 21/04 A2997 RMK AO2 SLP102 T02110039 =
2019-06-23 21:54 METAR KSLC 240354Z 18008KT 10SM CLR 22/03 A2997 RMK AO2 SLP103 T02220033 =
2019-06-23 20:54 METAR KSLC 240254Z 16008KT 10SM FEW170 24/03 A2997 RMK AO2 SLP102 T02390028
                 56014 =
2019-06-23 19:54 METAR KSLC 240154Z 15007KT 10SM FEW240 25/03 A2998 RMK AO2 SLP109 T02500028 =
2019-06-23 18:54 METAR KSLC 240054Z 24004KT 10SM FEW110 FEW200 SCT250 26/02 A2999 RMK AO2 SLP115
                 T02560022 =

Support USWX by starting your Amazon purchase here.